createdAt,value
2018-09-22T00:01:59.441Z,7.37
2018-09-22T00:04:28.432Z,7.77
2018-09-22T00:06:57.268Z,12.03
2018-09-22T00:09:26.040Z,7.77
2018-09-22T00:11:54.845Z,7.67
2018-09-22T00:14:23.646Z,11.03
2018-09-22T00:16:52.448Z,6.17
2018-09-22T00:19:24.063Z,7.97
2018-09-22T00:21:53.113Z,6.67
2018-09-22T00:24:21.903Z,8.53
2018-09-22T00:26:51.600Z,7.23
2018-09-22T00:29:20.424Z,5.97
2018-09-22T00:31:49.220Z,9.70
2018-09-22T00:34:18.052Z,9.80
2018-09-22T00:36:46.856Z,11.00
2018-09-22T00:39:15.632Z,4.70
2018-09-22T00:41:44.448Z,10.47
2018-09-22T00:44:13.225Z,7.40
2018-09-22T00:46:42.120Z,8.33
2018-09-22T00:49:10.916Z,9.30
2018-09-22T00:51:39.833Z,14.33
2018-09-22T00:54:08.832Z,5.43
2018-09-22T00:56:37.780Z,7.83
2018-09-22T00:59:06.607Z,15.47
2018-09-22T01:01:35.392Z,9.30
2018-09-22T01:04:04.664Z,5.83
2018-09-22T01:06:33.553Z,5.90
2018-09-22T01:09:02.453Z,8.50
2018-09-22T01:11:31.324Z,4.80
2018-09-22T01:14:00.128Z,6.97
2018-09-22T01:16:28.912Z,9.33
2018-09-22T01:18:57.735Z,6.60
2018-09-22T01:21:26.529Z,8.30
2018-09-22T01:23:55.344Z,8.13
2018-09-22T01:26:24.176Z,6.97
2018-09-22T01:28:52.970Z,7.97
2018-09-22T01:31:21.806Z,13.17
2018-09-22T01:33:50.617Z,7.67
2018-09-22T01:36:20.158Z,5.77
2018-09-22T01:38:48.943Z,9.07
2018-09-22T01:41:17.762Z,7.03
2018-09-22T01:43:46.764Z,8.87
2018-09-22T01:46:15.584Z,11.87
2018-09-22T01:48:44.394Z,7.03
2018-09-22T01:51:13.195Z,10.10
2018-09-22T01:53:41.989Z,12.47
2018-09-22T01:56:10.848Z,13.33
2018-09-22T01:58:39.640Z,11.87
2018-09-22T02:01:08.460Z,9.70
2018-09-22T02:03:37.256Z,8.30
2018-09-22T02:06:06.312Z,12.97
2018-09-22T02:08:35.192Z,9.50
2018-09-22T02:11:04.033Z,11.13
2018-09-22T02:13:32.857Z,12.87
2018-09-22T02:16:01.677Z,11.23
2018-09-22T02:18:30.485Z,9.80
2018-09-22T02:20:59.297Z,13.57
2018-09-22T02:23:28.118Z,7.90
2018-09-22T02:25:56.960Z,9.73
2018-09-22T02:28:25.748Z,12.23
2018-09-22T02:30:54.541Z,8.80
2018-09-22T02:33:23.962Z,17.63
2018-09-22T02:35:52.784Z,10.83
2018-09-22T02:38:21.601Z,15.53
2018-09-22T02:40:50.432Z,12.90
2018-09-22T02:43:19.218Z,7.40
2018-09-22T02:45:48.184Z,9.37
2018-09-22T02:48:16.992Z,10.27
2018-09-22T02:50:45.784Z,8.60
2018-09-22T02:53:14.568Z,12.33
2018-09-22T02:55:43.359Z,11.10
2018-09-22T02:58:12.196Z,11.90
2018-09-22T03:00:40.996Z,17.47
2018-09-22T03:03:09.801Z,7.57
2018-09-22T03:05:38.581Z,8.87
2018-09-22T03:08:07.420Z,8.57
2018-09-22T03:10:36.237Z,9.83
2018-09-22T03:13:05.085Z,21.23
2018-09-22T03:15:33.951Z,10.90
2018-09-22T03:18:02.703Z,11.60
2018-09-22T03:20:31.496Z,8.17
2018-09-22T03:23:00.353Z,13.40
2018-09-22T03:25:29.146Z,13.17
2018-09-22T03:27:57.931Z,7.50
2018-09-22T03:30:26.858Z,5.80
2018-09-22T03:32:55.712Z,7.00
2018-09-22T03:35:24.537Z,14.03
2018-09-22T03:37:53.353Z,11.27
2018-09-22T03:40:22.140Z,9.73
2018-09-22T03:42:50.969Z,10.30
2018-09-22T03:45:19.828Z,9.87
2018-09-22T03:47:48.653Z,9.63
2018-09-22T03:50:17.644Z,10.70
2018-09-22T03:52:46.446Z,12.47
2018-09-22T03:55:15.255Z,9.80
2018-09-22T03:57:44.076Z,13.00
2018-09-22T04:00:12.904Z,10.50
2018-09-22T04:02:41.688Z,8.07
2018-09-22T04:05:10.481Z,7.23
2018-09-22T04:07:39.285Z,10.30
2018-09-22T04:10:08.133Z,13.77
2018-09-22T04:12:37.056Z,11.37
2018-09-22T04:15:05.865Z,6.60
2018-09-22T04:17:34.666Z,10.97
2018-09-22T04:20:03.488Z,5.07
2018-09-22T04:22:32.271Z,9.60
2018-09-22T04:25:01.152Z,13.43
2018-09-22T04:27:30.083Z,8.13
2018-09-22T04:29:58.919Z,11.33
2018-09-22T04:32:27.776Z,4.67
2018-09-22T04:34:56.600Z,7.73
2018-09-22T04:37:25.405Z,7.50
2018-09-22T04:39:54.409Z,9.20
2018-09-22T04:42:23.280Z,8.23
2018-09-22T04:44:52.171Z,9.83
2018-09-22T04:47:20.956Z,9.43
2018-09-22T04:49:49.759Z,10.80
2018-09-22T04:52:18.561Z,16.83
2018-09-22T04:54:47.372Z,9.57
2018-09-22T04:57:16.220Z,14.93
2018-09-22T04:59:45.029Z,9.90
2018-09-22T05:02:14.266Z,11.47
2018-09-22T05:04:43.149Z,9.50
2018-09-22T05:07:11.964Z,10.57
2018-09-22T05:09:40.787Z,13.87
2018-09-22T05:12:09.589Z,13.80
2018-09-22T05:14:38.487Z,10.73
2018-09-22T05:17:07.329Z,10.17
2018-09-22T05:19:36.108Z,8.60
2018-09-22T05:22:04.960Z,7.23
2018-09-22T05:24:34.567Z,6.97
2018-09-22T05:27:03.337Z,18.80
2018-09-22T05:29:32.145Z,12.33
2018-09-22T05:32:00.981Z,9.03
2018-09-22T05:34:29.902Z,3.93
2018-09-22T05:36:58.717Z,12.90
2018-09-22T05:39:27.548Z,15.07
2018-09-22T05:41:56.340Z,9.00
2018-09-22T05:44:25.192Z,13.93
2018-09-22T05:46:53.989Z,18.80
2018-09-22T05:49:22.812Z,14.17
2018-09-22T05:51:51.601Z,10.07
2018-09-22T05:54:20.425Z,9.93
2018-09-22T05:56:49.319Z,7.23
2018-09-22T05:59:18.140Z,15.13
2018-09-22T06:01:46.956Z,15.07
2018-09-22T06:04:15.744Z,9.17
2018-09-22T06:06:44.598Z,12.53
2018-09-22T06:09:13.384Z,7.67
2018-09-22T06:11:42.248Z,11.70
2018-09-22T06:14:11.274Z,7.70
2018-09-22T06:16:40.190Z,8.77
2018-09-22T06:19:09.000Z,10.03
2018-09-22T06:21:39.457Z,8.47
2018-09-22T06:24:08.248Z,9.90
2018-09-22T06:26:38.770Z,9.27
2018-09-22T06:29:07.772Z,6.63
2018-09-22T06:31:37.403Z,13.00
2018-09-22T06:34:06.180Z,14.67
2018-09-22T06:36:35.025Z,17.87
2018-09-22T06:39:06.440Z,10.03
2018-09-22T06:41:35.385Z,12.60
2018-09-22T06:44:05.548Z,11.23
2018-09-22T06:46:34.449Z,11.90
2018-09-22T06:49:03.276Z,13.63
2018-09-22T06:51:32.065Z,12.17
2018-09-22T06:54:00.897Z,11.73
2018-09-22T06:56:29.680Z,13.30
2018-09-22T06:58:58.468Z,8.07
2018-09-22T07:01:27.286Z,8.17
2018-09-22T07:03:56.078Z,7.97
2018-09-22T07:06:24.914Z,15.53
2018-09-22T07:08:53.834Z,9.47
2018-09-22T07:11:22.748Z,7.67
2018-09-22T07:13:51.626Z,10.47
2018-09-22T07:16:20.413Z,13.43
2018-09-22T07:18:49.211Z,9.47
2018-09-22T07:21:22.296Z,5.33
2018-09-22T07:23:51.116Z,9.30
2018-09-22T07:26:19.888Z,12.47
2018-09-22T07:28:48.696Z,11.67
2018-09-22T07:31:17.501Z,16.37
2018-09-22T07:33:46.332Z,11.53
2018-09-22T07:36:15.152Z,6.57
2018-09-22T07:38:43.936Z,10.00
2018-09-22T07:41:12.814Z,13.43
2018-09-22T07:43:42.412Z,10.23
2018-09-22T07:46:11.193Z,6.33
2018-09-22T07:48:40.012Z,10.83
2018-09-22T07:51:08.877Z,18.37
2018-09-22T07:53:37.664Z,13.17
2018-09-22T07:56:06.457Z,10.83
2018-09-22T07:58:35.281Z,13.07
2018-09-22T08:01:04.136Z,15.90
2018-09-22T08:03:32.923Z,9.83
2018-09-22T08:06:01.714Z,5.30
2018-09-22T08:08:30.889Z,9.90
2018-09-22T08:10:59.852Z,7.93
2018-09-22T08:13:28.691Z,6.90
2018-09-22T08:15:57.465Z,8.43
2018-09-22T08:18:26.248Z,7.73
2018-09-22T08:20:55.039Z,7.17
2018-09-22T08:23:23.828Z,9.70
2018-09-22T08:25:52.621Z,9.60
2018-09-22T08:28:21.432Z,12.10
2018-09-22T08:30:50.219Z,12.30
2018-09-22T08:33:19.055Z,4.83
2018-09-22T08:35:48.397Z,13.60
2018-09-22T08:38:17.230Z,11.60
2018-09-22T08:40:45.999Z,4.23
2018-09-22T08:43:15.216Z,6.43
2018-09-22T08:45:43.988Z,5.87
2018-09-22T08:48:12.749Z,13.77
2018-09-22T08:50:41.612Z,6.03
2018-09-22T08:53:10.412Z,7.37
2018-09-22T08:55:39.189Z,5.33
2018-09-22T08:58:08.013Z,6.13
2018-09-22T09:00:36.782Z,5.30
2018-09-22T09:03:05.634Z,8.97
2018-09-22T09:05:34.440Z,6.47
2018-09-22T09:08:03.216Z,4.83
2018-09-22T09:10:31.984Z,8.30
2018-09-22T09:13:00.808Z,5.20
2018-09-22T09:15:29.636Z,5.70
2018-09-22T09:17:58.408Z,8.33
2018-09-22T09:20:27.209Z,4.23
2018-09-22T09:22:56.008Z,5.23
2018-09-22T09:25:24.835Z,4.53
2018-09-22T09:27:54.385Z,3.67
2018-09-22T09:30:23.212Z,3.63
2018-09-22T09:32:52.744Z,3.37
2018-09-22T09:35:21.544Z,2.23
2018-09-22T09:37:50.401Z,4.70
2018-09-22T09:40:19.296Z,3.13
2018-09-22T09:42:48.109Z,9.50
2018-09-22T09:45:16.941Z,4.03
2018-09-22T09:47:45.905Z,4.10
2018-09-22T09:50:14.693Z,6.77
2018-09-22T09:52:43.542Z,5.50
2018-09-22T09:55:13.051Z,5.00
2018-09-22T09:57:42.043Z,3.67
2018-09-22T10:00:10.831Z,3.00
2018-09-22T10:02:39.617Z,5.13
2018-09-22T10:05:08.438Z,2.67
2018-09-22T10:07:37.216Z,2.40
2018-09-22T10:10:05.990Z,2.93
2018-09-22T10:12:34.826Z,3.53
2018-09-22T10:15:03.632Z,3.00
2018-09-22T10:17:32.434Z,4.17
2018-09-22T10:20:01.388Z,2.17
2018-09-22T10:22:30.172Z,1.40
2018-09-22T10:24:58.937Z,4.07
2018-09-22T10:27:27.764Z,2.40
2018-09-22T10:29:56.712Z,2.73
2018-09-22T10:32:25.535Z,2.63
2018-09-22T10:34:54.714Z,5.20
2018-09-22T10:37:23.503Z,3.20
2018-09-22T10:39:53.585Z,2.17
2018-09-22T10:42:22.365Z,2.20
2018-09-22T10:44:51.130Z,4.60
2018-09-22T10:47:19.944Z,4.03
2018-09-22T10:49:48.740Z,2.33
2018-09-22T10:52:17.528Z,4.27
2018-09-22T10:54:46.297Z,5.63
2018-09-22T10:57:15.108Z,4.73
2018-09-22T10:59:43.900Z,2.37
2018-09-22T11:02:12.677Z,2.60
2018-09-22T11:04:41.452Z,3.07
2018-09-22T11:07:10.269Z,2.57
2018-09-22T11:09:39.097Z,3.07
2018-09-22T11:12:07.875Z,2.57
2018-09-22T11:14:36.667Z,2.50
2018-09-22T11:17:05.433Z,1.37
2018-09-22T11:19:34.651Z,2.97
2018-09-22T11:22:03.584Z,2.77
2018-09-22T11:24:32.356Z,4.60
2018-09-22T11:27:01.507Z,2.30
2018-09-22T11:29:30.553Z,9.23
2018-09-22T11:31:59.736Z,5.93
2018-09-22T11:34:28.524Z,4.77
2018-09-22T11:36:57.378Z,2.13
2018-09-22T11:39:26.166Z,5.70
2018-09-22T11:41:54.947Z,1.53
2018-09-22T11:44:23.732Z,4.93
2018-09-22T11:46:52.533Z,3.63
2018-09-22T11:49:21.295Z,4.20
2018-09-22T11:51:50.698Z,2.13
2018-09-22T11:54:19.470Z,3.33
2018-09-22T11:56:48.285Z,0.67
2018-09-22T11:59:17.148Z,3.73
2018-09-22T12:01:45.928Z,1.87
2018-09-22T12:04:14.716Z,3.87
2018-09-22T12:06:43.663Z,1.27
2018-09-22T12:09:12.629Z,3.40
2018-09-22T12:11:41.720Z,3.40
2018-09-22T12:14:11.013Z,1.63
2018-09-22T12:16:39.649Z,2.13
2018-09-22T12:19:09.596Z,4.90
2018-09-22T12:21:38.400Z,6.40
2018-09-22T12:24:07.928Z,2.03
2018-09-22T12:26:36.696Z,1.53
2018-09-22T12:29:05.792Z,2.70
2018-09-22T12:31:34.560Z,5.97
2018-09-22T12:34:03.421Z,4.13
2018-09-22T12:36:32.209Z,2.87
2018-09-22T12:39:00.989Z,2.13
2018-09-22T12:41:29.787Z,1.73
2018-09-22T12:43:58.591Z,1.33
2018-09-22T12:46:27.405Z,4.17
2018-09-22T12:48:56.183Z,2.27
2018-09-22T12:51:24.959Z,3.80
2018-09-22T12:53:53.748Z,5.43
2018-09-22T12:56:22.551Z,2.90
2018-09-22T12:58:51.380Z,1.73
2018-09-22T13:01:20.949Z,4.23
2018-09-22T13:03:49.810Z,3.90
2018-09-22T13:06:18.618Z,3.80
2018-09-22T13:08:47.399Z,1.63
2018-09-22T13:11:16.212Z,3.77
2018-09-22T13:13:45.001Z,5.63
2018-09-22T13:16:13.792Z,5.53
2018-09-22T13:18:43.773Z,2.87
2018-09-22T13:21:12.562Z,2.37
2018-09-22T13:23:41.651Z,2.40
2018-09-22T13:26:11.790Z,4.53
2018-09-22T13:28:40.601Z,3.80
2018-09-22T13:31:09.528Z,3.23
2018-09-22T13:33:38.338Z,4.50
2018-09-22T13:36:07.154Z,3.80
2018-09-22T13:38:35.950Z,3.20
2018-09-22T13:41:04.756Z,4.37
2018-09-22T13:43:33.568Z,4.57
2018-09-22T13:46:02.413Z,4.13
2018-09-22T13:48:31.229Z,2.00
2018-09-22T13:51:00.101Z,2.87
2018-09-22T13:53:28.826Z,2.93
2018-09-22T13:55:57.624Z,2.50
2018-09-22T13:58:26.453Z,2.53
2018-09-22T14:00:55.242Z,2.60
2018-09-22T14:03:24.107Z,5.03
2018-09-22T14:05:52.901Z,2.60
2018-09-22T14:08:21.704Z,2.93
2018-09-22T14:10:50.504Z,4.93
2018-09-22T14:13:19.316Z,4.27
2018-09-22T14:15:49.454Z,2.33
2018-09-22T14:18:18.259Z,2.87
2018-09-22T14:20:47.232Z,3.20
2018-09-22T14:23:16.200Z,3.10
2018-09-22T14:25:45.046Z,4.27
2018-09-22T14:28:13.864Z,4.23
2018-09-22T14:30:42.656Z,4.10
2018-09-22T14:33:11.479Z,2.50
2018-09-22T14:35:40.244Z,6.20
2018-09-22T14:38:09.101Z,3.43
2018-09-22T14:40:38.295Z,4.30
2018-09-22T14:43:07.079Z,8.13
2018-09-22T14:45:35.905Z,2.33
2018-09-22T14:48:04.705Z,5.70
2018-09-22T14:50:33.596Z,3.70
2018-09-22T14:53:02.373Z,3.50
2018-09-22T14:55:31.195Z,2.00
2018-09-22T14:57:59.991Z,3.13
2018-09-22T15:00:28.784Z,2.57
2018-09-22T15:02:59.938Z,3.57
2018-09-22T15:05:28.737Z,2.33
2018-09-22T15:07:58.012Z,1.60
2018-09-22T15:10:26.843Z,4.23
2018-09-22T15:12:56.082Z,3.23
2018-09-22T15:15:25.988Z,8.97
2018-09-22T15:17:54.807Z,2.83
2018-09-22T15:20:23.617Z,3.37
2018-09-22T15:22:52.413Z,9.60
2018-09-22T15:25:21.257Z,5.07
2018-09-22T15:27:50.036Z,5.27
2018-09-22T15:30:18.857Z,1.67
2018-09-22T15:32:47.684Z,2.40
2018-09-22T15:35:16.469Z,3.83
2018-09-22T15:37:45.250Z,4.80
2018-09-22T15:40:14.452Z,3.53
2018-09-22T15:42:43.242Z,3.73
2018-09-22T15:45:12.127Z,4.20
2018-09-22T15:47:41.609Z,2.23
2018-09-22T15:50:10.412Z,3.80
2018-09-22T15:52:39.204Z,2.10
2018-09-22T15:55:07.990Z,3.03
2018-09-22T15:57:36.849Z,3.30
2018-09-22T16:00:05.897Z,3.90
2018-09-22T16:02:34.733Z,3.20
2018-09-22T16:05:03.544Z,3.80
2018-09-22T16:07:32.337Z,3.87
2018-09-22T16:10:01.153Z,4.40
2018-09-22T16:12:29.925Z,5.13
2018-09-22T16:14:58.744Z,2.33
2018-09-22T16:17:27.937Z,4.80
2018-09-22T16:19:56.717Z,6.87
2018-09-22T16:22:25.640Z,5.87
2018-09-22T16:24:54.472Z,4.07
2018-09-22T16:27:23.338Z,3.87
2018-09-22T16:29:52.087Z,2.90
2018-09-22T16:32:20.909Z,5.17
2018-09-22T16:34:49.731Z,4.97
2018-09-22T16:37:18.521Z,2.67
2018-09-22T16:39:47.452Z,5.80
2018-09-22T16:42:16.275Z,4.37
2018-09-22T16:44:45.065Z,5.93
2018-09-22T16:47:13.883Z,3.13
2018-09-22T16:49:43.585Z,7.63
2018-09-22T16:52:12.717Z,3.10
2018-09-22T16:54:41.559Z,3.00
2018-09-22T16:57:10.438Z,5.00
2018-09-22T16:59:39.482Z,5.07
2018-09-22T17:02:08.295Z,1.93
2018-09-22T17:04:37.091Z,2.30
2018-09-22T17:07:05.944Z,3.73
2018-09-22T17:09:34.772Z,4.53
2018-09-22T17:12:03.581Z,4.33
2018-09-22T17:14:32.457Z,3.77
2018-09-22T17:17:01.266Z,5.40
2018-09-22T17:19:30.092Z,4.50
2018-09-22T17:21:59.009Z,3.73
2018-09-22T17:24:27.786Z,4.43
2018-09-22T17:26:56.601Z,6.83
2018-09-22T17:29:25.428Z,5.37
2018-09-22T17:31:54.213Z,4.00
2018-09-22T17:34:23.008Z,5.20
2018-09-22T17:36:51.799Z,2.17
2018-09-22T17:39:20.588Z,6.80
2018-09-22T17:41:49.398Z,5.23
2018-09-22T17:44:18.239Z,7.13
2018-09-22T17:46:47.021Z,4.43
2018-09-22T17:49:16.084Z,5.13
2018-09-22T17:51:44.869Z,3.07
2018-09-22T17:54:15.087Z,5.10
2018-09-22T17:56:43.914Z,6.97
2018-09-22T17:59:12.776Z,3.37
2018-09-22T18:01:41.693Z,2.60
2018-09-22T18:04:10.590Z,4.97
2018-09-22T18:06:39.473Z,2.90
2018-09-22T18:09:08.682Z,2.90
2018-09-22T18:11:37.732Z,7.77
2018-09-22T18:14:06.524Z,6.03
2018-09-22T18:16:35.448Z,7.03
2018-09-22T18:19:04.207Z,4.47
2018-09-22T18:21:33.211Z,3.47
2018-09-22T18:24:02.286Z,5.60
2018-09-22T18:26:31.197Z,2.43
2018-09-22T18:29:00.037Z,4.40
2018-09-22T18:31:28.852Z,4.50
2018-09-22T18:33:57.688Z,4.33
2018-09-22T18:36:26.501Z,7.90
2018-09-22T18:38:55.756Z,1.20
2018-09-22T18:41:24.564Z,6.57
2018-09-22T18:43:53.399Z,4.47
2018-09-22T18:46:22.644Z,6.67
2018-09-22T18:48:51.477Z,3.17
2018-09-22T18:51:21.701Z,3.00
2018-09-22T18:53:50.968Z,2.13
2018-09-22T18:56:19.777Z,4.90
2018-09-22T18:58:48.974Z,1.90
2018-09-22T19:01:17.830Z,3.37
2018-09-22T19:03:46.580Z,4.00
2018-09-22T19:06:15.377Z,2.40
2018-09-22T19:08:44.217Z,1.80
2018-09-22T19:11:13.296Z,2.90
2018-09-22T19:13:45.629Z,2.73
2018-09-22T19:16:36.539Z,2.60
2018-09-22T19:19:08.999Z,10.57
2018-09-22T19:21:55.614Z,4.10
2018-09-22T19:25:29.672Z,3.50
2018-09-22T19:28:01.536Z,3.03
2018-09-22T19:30:43.431Z,2.27
2018-09-22T19:33:46.801Z,2.57
2018-09-22T19:36:24.473Z,4.50
2018-09-22T19:38:58.770Z,1.10
2018-09-22T19:41:32.988Z,3.20
2018-09-22T19:44:05.711Z,5.67
2018-09-22T19:46:39.375Z,2.90
2018-09-22T19:49:12.538Z,2.03
2018-09-22T19:51:45.505Z,2.90
2018-09-22T19:54:14.417Z,2.30
2018-09-22T19:56:43.236Z,4.37
2018-09-22T19:59:12.104Z,2.07
2018-09-22T20:01:40.994Z,2.83
2018-09-22T20:04:09.800Z,3.13
2018-09-22T20:06:38.589Z,2.23
2018-09-22T20:09:07.871Z,1.07
2018-09-22T20:11:36.858Z,2.77
2018-09-22T20:14:06.067Z,2.07
2018-09-22T20:16:35.160Z,2.17
2018-09-22T20:19:05.887Z,1.43
2018-09-22T20:21:34.683Z,2.70
2018-09-22T20:24:03.596Z,1.40
2018-09-22T20:26:32.682Z,5.60
2018-09-22T20:29:01.609Z,4.63
2018-09-22T20:31:30.486Z,4.17
2018-09-22T20:33:59.261Z,4.30
2018-09-22T20:36:28.487Z,0.50
2018-09-22T20:38:57.282Z,4.87
2018-09-22T20:41:27.196Z,1.83
2018-09-22T20:43:56.055Z,3.87
2018-09-22T20:46:25.460Z,1.83
2018-09-22T20:48:54.353Z,3.60
2018-09-22T20:51:23.132Z,8.87
2018-09-22T20:53:52.120Z,3.07
2018-09-22T20:56:21.011Z,4.90
2018-09-22T20:58:49.922Z,2.50
2018-09-22T21:01:18.706Z,1.93
2018-09-22T21:03:47.497Z,6.53
2018-09-22T21:06:16.298Z,2.27
2018-09-22T21:08:45.146Z,3.57
2018-09-22T21:11:13.979Z,2.13
2018-09-22T21:13:42.809Z,4.90
2018-09-22T21:16:11.610Z,3.27
2018-09-22T21:18:40.523Z,3.97
2018-09-22T21:21:09.354Z,4.53
2018-09-22T21:23:39.107Z,1.57
2018-09-22T21:26:08.735Z,2.63
2018-09-22T21:28:38.250Z,2.77
2018-09-22T21:31:07.073Z,3.33
2018-09-22T21:33:37.876Z,5.60
2018-09-22T21:36:06.705Z,4.27
2018-09-22T21:38:35.493Z,4.93
2018-09-22T21:41:04.380Z,3.93
2018-09-22T21:43:33.210Z,7.13
2018-09-22T21:46:01.984Z,4.37
2018-09-22T21:48:30.840Z,5.03
2018-09-22T21:50:59.633Z,7.47
2018-09-22T21:53:28.467Z,1.67
2018-09-22T21:55:57.282Z,0.87
2018-09-22T21:58:26.078Z,2.20
2018-09-22T22:00:54.893Z,3.00
2018-09-22T22:03:24.059Z,4.43
2018-09-22T22:05:52.887Z,4.07
2018-09-22T22:08:21.709Z,2.40
2018-09-22T22:10:50.560Z,2.23
2018-09-22T22:13:19.419Z,4.07
2018-09-22T22:15:48.223Z,3.67
2018-09-22T22:18:17.072Z,2.57
2018-09-22T22:20:45.856Z,2.80
2018-09-22T22:23:15.264Z,4.47
2018-09-22T22:25:44.933Z,1.63
2018-09-22T22:28:13.756Z,3.50
2018-09-22T22:30:43.761Z,4.60
2018-09-22T22:33:12.561Z,3.47
2018-09-22T22:35:41.718Z,11.80
2018-09-22T22:38:10.990Z,3.03
2018-09-22T22:40:39.820Z,4.60
2018-09-22T22:43:08.640Z,2.30
2018-09-22T22:45:37.399Z,2.20
2018-09-22T22:48:06.292Z,3.20
2018-09-22T22:50:35.125Z,1.80
2018-09-22T22:53:03.964Z,2.60
2018-09-22T22:55:32.807Z,3.30
2018-09-22T22:58:01.593Z,2.43
2018-09-22T23:00:30.385Z,1.37
2018-09-22T23:02:59.164Z,3.30
2018-09-22T23:05:27.937Z,9.00
2018-09-22T23:07:56.808Z,3.87
2018-09-22T23:10:25.604Z,3.60
2018-09-22T23:12:54.392Z,4.27
2018-09-22T23:15:23.422Z,4.53
2018-09-22T23:17:52.764Z,2.60
2018-09-22T23:20:21.568Z,1.87
2018-09-22T23:22:51.160Z,3.40
2018-09-22T23:25:19.948Z,1.40
2018-09-22T23:27:48.756Z,1.90
2018-09-22T23:30:17.729Z,2.17
2018-09-22T23:32:46.566Z,4.20
2018-09-22T23:35:15.368Z,4.53
2018-09-22T23:37:44.172Z,3.63
2018-09-22T23:40:12.952Z,4.47
2018-09-22T23:42:41.741Z,4.43
2018-09-22T23:45:10.536Z,2.97
2018-09-22T23:47:39.321Z,6.13
2018-09-22T23:50:08.136Z,2.43
2018-09-22T23:52:36.950Z,3.23
2018-09-22T23:55:05.787Z,3.73
2018-09-22T23:57:34.576Z,3.63
